createdAt,value
2018-08-07T00:00:08.684Z,0.00
2018-08-07T00:01:08.689Z,0.00
2018-08-07T00:02:08.705Z,0.00
2018-08-07T00:03:08.698Z,0.00
2018-08-07T00:04:08.701Z,0.00
2018-08-07T00:05:08.706Z,0.00
2018-08-07T00:06:08.711Z,0.00
2018-08-07T00:07:08.715Z,0.00
2018-08-07T00:08:08.719Z,0.00
2018-08-07T00:09:08.724Z,0.00
2018-08-07T00:10:08.727Z,0.00
2018-08-07T00:11:08.733Z,0.00
2018-08-07T00:12:08.736Z,0.00
2018-08-07T00:13:08.740Z,0.00
2018-08-07T00:14:08.744Z,0.00
2018-08-07T00:15:08.749Z,0.00
2018-08-07T00:16:08.754Z,0.00
2018-08-07T00:17:08.758Z,0.00
2018-08-07T00:18:08.766Z,0.00
2018-08-07T00:19:08.765Z,0.00
2018-08-07T00:20:08.771Z,0.00
2018-08-07T00:21:08.774Z,0.00
2018-08-07T00:22:08.781Z,0.00
2018-08-07T00:23:08.782Z,0.00
2018-08-07T00:24:08.788Z,0.00
2018-08-07T00:25:08.792Z,0.00
2018-08-07T00:26:08.795Z,0.00
2018-08-07T00:27:08.799Z,0.00
2018-08-07T00:28:08.803Z,0.00
2018-08-07T00:29:08.810Z,0.00
2018-08-07T00:30:08.812Z,0.00
2018-08-07T00:31:08.821Z,0.00
2018-08-07T00:32:08.821Z,0.00
2018-08-07T00:33:08.826Z,0.00
2018-08-07T00:34:08.830Z,0.00
2018-08-07T00:35:08.834Z,0.00
2018-08-07T00:36:08.837Z,0.00
2018-08-07T00:37:08.846Z,0.00
2018-08-07T00:38:08.845Z,0.00
2018-08-07T00:39:08.857Z,0.00
2018-08-07T00:40:08.856Z,0.00
2018-08-07T00:41:08.858Z,0.00
2018-08-07T00:42:08.862Z,0.00
2018-08-07T00:43:08.867Z,0.00
2018-08-07T00:44:08.872Z,0.00
2018-08-07T00:45:08.875Z,0.00
2018-08-07T00:46:08.878Z,0.00
2018-08-07T00:47:08.883Z,0.00
2018-08-07T00:48:08.888Z,0.00
2018-08-07T00:49:08.891Z,0.00
2018-08-07T00:50:08.922Z,0.00
2018-08-07T00:51:08.899Z,0.00
2018-08-07T00:52:08.903Z,0.00
2018-08-07T00:53:08.909Z,0.00
2018-08-07T00:54:08.912Z,0.00
2018-08-07T00:55:08.917Z,0.00
2018-08-07T00:56:08.920Z,0.00
2018-08-07T00:57:08.925Z,0.00
2018-08-07T00:58:08.929Z,0.00
2018-08-07T00:59:08.933Z,0.00
2018-08-07T01:00:08.936Z,0.00
2018-08-07T01:01:08.943Z,0.00
2018-08-07T01:02:08.945Z,0.00
2018-08-07T01:03:08.952Z,0.00
2018-08-07T01:04:08.953Z,0.00
2018-08-07T01:05:08.958Z,0.00
2018-08-07T01:06:08.960Z,0.00
2018-08-07T01:07:08.966Z,0.00
2018-08-07T01:08:08.970Z,0.00
2018-08-07T01:09:08.973Z,0.00
2018-08-07T01:10:08.977Z,0.00
2018-08-07T01:11:08.981Z,0.00
2018-08-07T01:12:08.985Z,0.00
2018-08-07T01:13:08.989Z,0.00
2018-08-07T01:14:08.993Z,0.00
2018-08-07T01:15:08.997Z,0.00
2018-08-07T01:16:09.001Z,0.00
2018-08-07T01:17:09.005Z,0.00
2018-08-07T01:18:09.010Z,0.00
2018-08-07T01:19:09.012Z,0.00
2018-08-07T01:20:09.018Z,0.00
2018-08-07T01:21:09.024Z,0.00
2018-08-07T01:22:09.025Z,0.00
2018-08-07T01:23:09.028Z,0.00
2018-08-07T01:24:09.032Z,0.00
2018-08-07T01:25:09.038Z,0.00
2018-08-07T01:26:09.041Z,0.00
2018-08-07T01:27:09.045Z,0.00
2018-08-07T01:28:09.049Z,0.00
2018-08-07T01:29:09.054Z,0.00
2018-08-07T01:30:09.056Z,0.00
2018-08-07T01:31:09.059Z,0.00
2018-08-07T01:32:09.064Z,0.00
2018-08-07T01:33:09.069Z,0.00
2018-08-07T01:34:09.123Z,0.00
2018-08-07T01:35:09.075Z,0.00
2018-08-07T01:36:09.080Z,0.00
2018-08-07T01:37:09.085Z,0.00
2018-08-07T01:38:09.088Z,0.00
2018-08-07T01:39:09.093Z,0.00
2018-08-07T01:40:09.096Z,0.00
2018-08-07T01:41:09.099Z,0.00
2018-08-07T01:42:09.102Z,0.00
2018-08-07T01:43:09.107Z,0.00
2018-08-07T01:44:09.111Z,0.00
2018-08-07T01:45:09.116Z,0.00
2018-08-07T01:46:09.118Z,0.00
2018-08-07T01:47:09.124Z,0.00
2018-08-07T01:48:09.126Z,0.00
2018-08-07T01:49:09.131Z,0.00
2018-08-07T01:50:09.134Z,0.00
2018-08-07T01:51:09.138Z,0.00
2018-08-07T01:52:09.142Z,0.00
2018-08-07T01:53:09.145Z,0.00
2018-08-07T01:54:09.148Z,0.00
2018-08-07T01:55:09.153Z,0.00
2018-08-07T01:56:09.157Z,0.00
2018-08-07T01:57:09.161Z,0.00
2018-08-07T01:58:09.172Z,0.00
2018-08-07T01:59:09.166Z,0.00
2018-08-07T02:00:09.172Z,0.00
2018-08-07T02:01:09.175Z,0.00
2018-08-07T02:02:09.179Z,0.00
2018-08-07T02:03:09.183Z,0.00
2018-08-07T02:04:09.186Z,0.00
2018-08-07T02:05:09.190Z,0.00
2018-08-07T02:06:09.194Z,0.00
2018-08-07T02:07:09.197Z,0.00
2018-08-07T02:08:09.201Z,0.00
2018-08-07T02:09:09.206Z,0.00
2018-08-07T02:10:09.212Z,0.00
2018-08-07T02:11:09.213Z,0.00
2018-08-07T02:12:09.216Z,0.00
2018-08-07T02:13:09.219Z,0.00
2018-08-07T02:14:09.223Z,0.00
2018-08-07T02:15:09.227Z,0.00
2018-08-07T02:16:09.232Z,0.00
2018-08-07T02:17:09.234Z,0.00
2018-08-07T02:18:09.237Z,0.00
2018-08-07T02:19:09.242Z,0.00
2018-08-07T02:20:09.245Z,0.00
2018-08-07T02:21:09.250Z,0.00
2018-08-07T02:22:09.252Z,0.00
2018-08-07T02:23:42.468Z,0.00
2018-08-07T02:24:09.259Z,0.00
2018-08-07T02:25:09.265Z,0.00
2018-08-07T02:26:09.274Z,0.00
2018-08-07T02:27:09.271Z,0.00
2018-08-07T02:28:09.274Z,0.00
2018-08-07T02:29:09.279Z,0.00
2018-08-07T02:30:09.281Z,0.00
2018-08-07T02:31:09.284Z,0.00
2018-08-07T02:32:09.289Z,0.00
2018-08-07T02:33:09.292Z,0.00
2018-08-07T02:34:09.295Z,0.00
2018-08-07T02:35:09.301Z,0.00
2018-08-07T02:36:09.304Z,0.00
2018-08-07T02:37:09.308Z,0.00
2018-08-07T02:38:09.310Z,0.00
2018-08-07T02:39:09.313Z,0.00
2018-08-07T02:40:09.318Z,0.00
2018-08-07T02:41:09.320Z,0.00
2018-08-07T02:42:09.324Z,0.00
2018-08-07T02:43:09.332Z,0.00
2018-08-07T02:44:09.333Z,0.00
2018-08-07T02:45:09.335Z,0.00
2018-08-07T02:46:09.337Z,0.00
2018-08-07T02:47:09.342Z,0.00
2018-08-07T02:48:09.345Z,0.00
2018-08-07T02:49:09.349Z,0.00
2018-08-07T02:50:09.353Z,0.00
2018-08-07T02:51:09.356Z,0.00
2018-08-07T02:52:09.359Z,0.00
2018-08-07T02:53:09.364Z,0.00
2018-08-07T02:54:09.365Z,0.00
2018-08-07T02:55:09.369Z,0.00
2018-08-07T02:56:09.372Z,0.00
2018-08-07T02:58:09.383Z,0.00
2018-08-07T02:59:09.383Z,0.00
2018-08-07T03:00:09.388Z,0.00
2018-08-07T03:01:09.398Z,0.00
2018-08-07T03:02:09.394Z,0.00
2018-08-07T03:03:09.398Z,0.00
2018-08-07T03:04:09.400Z,0.00
2018-08-07T03:05:09.403Z,0.00
2018-08-07T03:06:09.409Z,0.00
2018-08-07T03:07:09.409Z,0.00
2018-08-07T03:08:09.414Z,0.00
2018-08-07T03:09:09.421Z,0.00
2018-08-07T03:10:09.420Z,0.00
2018-08-07T03:11:09.424Z,0.00
2018-08-07T03:12:09.429Z,0.00
2018-08-07T03:13:09.431Z,0.00
2018-08-07T03:14:09.433Z,0.00
2018-08-07T03:15:09.437Z,0.00
2018-08-07T03:16:09.441Z,0.00
2018-08-07T03:17:09.445Z,0.00
2018-08-07T03:18:09.448Z,0.00
2018-08-07T03:19:09.450Z,0.00
2018-08-07T03:20:09.455Z,0.00
2018-08-07T03:21:09.457Z,0.00
2018-08-07T03:22:09.459Z,0.00
2018-08-07T03:23:09.464Z,0.00
2018-08-07T03:24:09.467Z,0.00
2018-08-07T03:25:09.474Z,0.00
2018-08-07T03:26:09.473Z,0.00
2018-08-07T03:27:09.476Z,0.00
2018-08-07T03:28:09.480Z,0.00
2018-08-07T03:29:09.484Z,0.00
2018-08-07T03:30:09.485Z,0.00
2018-08-07T03:31:09.488Z,0.00
2018-08-07T03:32:09.492Z,0.00
2018-08-07T03:33:09.495Z,0.00
2018-08-07T03:34:09.498Z,0.00
2018-08-07T03:35:09.501Z,0.00
2018-08-07T03:36:09.507Z,0.00
2018-08-07T03:37:09.510Z,0.00
2018-08-07T03:38:09.512Z,0.00
2018-08-07T03:39:09.514Z,0.00
2018-08-07T03:40:09.518Z,0.00
2018-08-07T03:41:09.522Z,0.00
2018-08-07T03:42:09.529Z,0.00
2018-08-07T03:43:09.528Z,0.00
2018-08-07T03:44:09.533Z,0.00
2018-08-07T03:45:09.536Z,0.00
2018-08-07T03:46:09.537Z,0.00
2018-08-07T03:47:09.541Z,0.00
2018-08-07T03:48:09.544Z,0.00
2018-08-07T03:49:09.556Z,0.00
2018-08-07T03:50:09.552Z,0.00
2018-08-07T03:51:09.554Z,0.00
2018-08-07T03:52:09.558Z,0.00
2018-08-07T03:53:09.639Z,0.00
2018-08-07T03:54:09.564Z,0.00
2018-08-07T03:55:09.574Z,0.00
2018-08-07T03:56:09.573Z,0.00
2018-08-07T03:57:09.575Z,0.00
2018-08-07T03:58:09.577Z,0.00
2018-08-07T03:59:09.624Z,0.00
2018-08-07T04:00:09.583Z,0.00
2018-08-07T04:01:09.588Z,0.00
2018-08-07T04:02:09.592Z,0.00
2018-08-07T04:03:09.592Z,0.00
2018-08-07T04:04:09.597Z,0.00
2018-08-07T04:05:09.600Z,0.00
2018-08-07T04:06:09.602Z,0.00
2018-08-07T04:07:09.605Z,0.00
2018-08-07T04:08:09.609Z,0.00
2018-08-07T04:09:09.614Z,0.00
2018-08-07T04:10:09.616Z,0.00
2018-08-07T04:11:09.619Z,0.00
2018-08-07T04:12:09.623Z,0.00
2018-08-07T04:13:09.626Z,0.00
2018-08-07T04:14:09.629Z,0.00
2018-08-07T04:15:09.632Z,0.00
2018-08-07T04:16:09.635Z,0.00
2018-08-07T04:17:09.639Z,0.00
2018-08-07T04:18:09.640Z,0.00
2018-08-07T04:19:09.645Z,5.63
2018-08-07T04:20:09.648Z,5.63
2018-08-07T04:21:09.650Z,5.63
2018-08-07T04:22:09.655Z,5.63
2018-08-07T04:23:09.657Z,5.63
2018-08-07T04:24:09.660Z,5.63
2018-08-07T04:25:09.667Z,5.63
2018-08-07T04:26:09.752Z,5.63
2018-08-07T04:27:09.677Z,5.63
2018-08-07T04:28:09.674Z,5.63
2018-08-07T04:29:09.676Z,5.63
2018-08-07T04:30:09.678Z,11.25
2018-08-07T04:31:09.682Z,11.25
2018-08-07T04:32:09.687Z,11.25
2018-08-07T04:33:09.689Z,11.25
2018-08-07T04:34:09.693Z,11.25
2018-08-07T04:35:09.696Z,11.25
2018-08-07T04:36:09.699Z,11.25
2018-08-07T04:37:09.702Z,11.25
2018-08-07T04:38:09.704Z,16.88
2018-08-07T04:39:09.707Z,16.88
2018-08-07T04:40:09.711Z,16.88
2018-08-07T04:41:09.714Z,16.88
2018-08-07T04:42:09.716Z,16.88
2018-08-07T04:43:09.720Z,16.88
2018-08-07T04:44:09.723Z,16.88
2018-08-07T04:45:09.726Z,16.88
2018-08-07T04:46:09.730Z,16.88
2018-08-07T04:47:09.739Z,16.88
2018-08-07T04:48:09.736Z,16.88
2018-08-07T04:49:09.742Z,16.88
2018-08-07T04:50:09.741Z,16.88
2018-08-07T04:51:09.745Z,22.50
2018-08-07T04:52:09.749Z,22.50
2018-08-07T04:53:09.771Z,22.50
2018-08-07T04:54:09.754Z,22.50
2018-08-07T04:55:09.757Z,22.50
2018-08-07T04:56:09.763Z,22.50
2018-08-07T04:57:09.764Z,28.13
2018-08-07T04:58:09.819Z,28.13
2018-08-07T04:59:09.773Z,28.13
2018-08-07T05:00:09.775Z,28.13
2018-08-07T05:01:09.775Z,28.13
2018-08-07T05:02:09.779Z,28.13
2018-08-07T05:03:09.783Z,28.13
2018-08-07T05:04:09.785Z,28.13
2018-08-07T05:05:09.787Z,28.13
2018-08-07T05:06:09.791Z,33.75
2018-08-07T05:07:09.800Z,33.75
2018-08-07T05:08:09.803Z,33.75
2018-08-07T05:09:09.803Z,33.75
2018-08-07T05:10:09.803Z,33.75
2018-08-07T05:11:09.806Z,39.38
2018-08-07T05:12:09.811Z,39.38
2018-08-07T05:13:09.813Z,39.38
2018-08-07T05:14:09.819Z,39.38
2018-08-07T05:15:09.818Z,39.38
2018-08-07T05:16:09.822Z,39.38
2018-08-07T05:17:09.826Z,45.00
2018-08-07T05:18:09.828Z,45.00
2018-08-07T05:19:09.831Z,50.63
2018-08-07T05:20:09.835Z,50.63
2018-08-07T05:21:09.839Z,56.25
2018-08-07T05:22:09.841Z,56.25
2018-08-07T05:23:09.881Z,61.88
2018-08-07T05:24:09.848Z,61.88
2018-08-07T05:25:09.851Z,61.88
2018-08-07T05:26:09.852Z,61.88
2018-08-07T05:27:09.856Z,61.88
2018-08-07T05:28:09.860Z,61.88
2018-08-07T05:29:09.863Z,67.50
2018-08-07T05:30:09.865Z,67.50
2018-08-07T05:31:09.870Z,67.50
2018-08-07T05:32:09.873Z,67.50
2018-08-07T05:33:09.876Z,67.50
2018-08-07T05:34:09.879Z,67.50
2018-08-07T05:35:09.882Z,67.50
2018-08-07T05:36:09.886Z,67.50
2018-08-07T05:37:09.888Z,67.50
2018-08-07T05:38:09.891Z,67.50
2018-08-07T05:39:09.895Z,67.50
2018-08-07T05:40:09.899Z,73.13
2018-08-07T05:41:09.902Z,73.13
2018-08-07T05:42:09.904Z,73.13
2018-08-07T05:43:09.912Z,73.13
2018-08-07T05:44:09.913Z,78.75
2018-08-07T05:45:09.915Z,78.75
2018-08-07T05:46:09.918Z,78.75
2018-08-07T05:47:09.922Z,78.75
2018-08-07T05:48:09.926Z,78.75
2018-08-07T05:49:09.930Z,78.75
2018-08-07T05:50:10.029Z,84.38
2018-08-07T05:51:10.362Z,84.38
2018-08-07T05:52:09.939Z,84.38
2018-08-07T05:53:09.945Z,84.38
2018-08-07T05:54:09.947Z,90.00
2018-08-07T05:55:09.970Z,90.00
2018-08-07T05:56:09.955Z,90.00
2018-08-07T05:57:09.958Z,90.00
2018-08-07T05:58:09.989Z,90.00
2018-08-07T05:59:09.964Z,95.63
2018-08-07T06:00:09.969Z,95.63
2018-08-07T06:01:09.973Z,95.63
2018-08-07T06:02:09.976Z,95.63
2018-08-07T06:03:09.978Z,95.63
2018-08-07T06:04:09.984Z,101.25
2018-08-07T06:05:09.999Z,101.25
2018-08-07T06:06:09.989Z,101.25
2018-08-07T06:07:09.994Z,101.25
2018-08-07T06:08:09.998Z,101.25
2018-08-07T06:09:10.005Z,101.25
2018-08-07T06:10:10.007Z,106.88
2018-08-07T06:11:10.036Z,101.25
2018-08-07T06:12:10.066Z,106.88
2018-08-07T06:13:10.017Z,106.88
2018-08-07T06:14:10.021Z,106.88
2018-08-07T06:15:10.039Z,106.88
2018-08-07T06:16:10.028Z,112.50
2018-08-07T06:17:10.033Z,112.50
2018-08-07T06:18:10.037Z,118.13
2018-08-07T06:19:10.051Z,118.13
2018-08-07T06:20:10.045Z,118.13
2018-08-07T06:21:10.049Z,123.75
2018-08-07T06:22:10.054Z,123.75
2018-08-07T06:23:10.056Z,129.38
2018-08-07T06:24:10.061Z,129.38
2018-08-07T06:25:10.064Z,129.38
2018-08-07T06:26:10.068Z,135.00
2018-08-07T06:27:10.072Z,135.00
2018-08-07T06:28:10.076Z,135.00
2018-08-07T06:29:10.080Z,135.00
2018-08-07T06:30:10.083Z,135.00
2018-08-07T06:31:10.089Z,140.63
2018-08-07T06:32:10.093Z,140.63
2018-08-07T06:33:10.098Z,140.63
2018-08-07T06:34:10.100Z,146.25
2018-08-07T06:35:10.105Z,151.88
2018-08-07T06:36:10.110Z,151.88
2018-08-07T06:37:10.115Z,157.50
2018-08-07T06:38:10.118Z,157.50
2018-08-07T06:39:10.123Z,163.13
2018-08-07T06:40:10.126Z,163.13
2018-08-07T06:41:10.131Z,157.50
2018-08-07T06:42:10.137Z,163.13
2018-08-07T06:43:10.140Z,163.13
2018-08-07T06:44:10.144Z,168.75
2018-08-07T06:45:10.149Z,163.13
2018-08-07T06:46:10.154Z,151.88
2018-08-07T06:47:10.159Z,157.50
2018-08-07T06:48:10.201Z,157.50
2018-08-07T06:49:10.167Z,168.75
2018-08-07T06:50:10.211Z,191.25
2018-08-07T06:51:10.177Z,196.88
2018-08-07T06:52:10.185Z,202.50
2018-08-07T06:53:10.187Z,202.50
2018-08-07T06:54:10.191Z,202.50
2018-08-07T06:55:10.195Z,208.13
2018-08-07T06:56:10.200Z,213.75
2018-08-07T06:57:10.234Z,219.38
2018-08-07T06:58:10.210Z,225.00
2018-08-07T06:59:10.216Z,230.63
2018-08-07T07:00:10.219Z,236.25
2018-08-07T07:01:10.225Z,241.88
2018-08-07T07:02:10.229Z,241.88
2018-08-07T07:03:10.235Z,247.50
2018-08-07T07:04:10.240Z,241.88
2018-08-07T07:05:10.245Z,315.00
2018-08-07T07:06:10.251Z,928.13
2018-08-07T07:07:10.255Z,1355.63
2018-08-07T07:08:10.261Z,1918.13
2018-08-07T07:09:10.267Z,1203.75
2018-08-07T07:10:10.273Z,793.13
2018-08-07T07:11:10.281Z,495.00
2018-08-07T07:12:10.290Z,489.38
2018-08-07T07:13:10.298Z,343.13
2018-08-07T07:14:10.306Z,787.50
2018-08-07T07:15:10.312Z,1102.50
2018-08-07T07:16:10.325Z,1192.50
2018-08-07T07:17:10.331Z,1293.75
2018-08-07T07:18:10.339Z,1575.00
2018-08-07T07:19:10.351Z,1074.38
2018-08-07T07:20:10.357Z,860.63
2018-08-07T07:21:10.368Z,928.13
2018-08-07T07:22:10.382Z,545.63
2018-08-07T07:23:10.386Z,365.63
2018-08-07T07:24:10.395Z,556.88
2018-08-07T07:25:10.405Z,399.38
2018-08-07T07:26:10.413Z,630.00
2018-08-07T07:27:10.423Z,838.13
2018-08-07T07:28:10.434Z,556.88
2018-08-07T07:29:10.442Z,444.38
2018-08-07T07:30:10.453Z,405.00
2018-08-07T07:31:10.461Z,225.00
2018-08-07T07:32:10.467Z,298.13
2018-08-07T07:33:10.478Z,371.25
2018-08-07T07:34:10.735Z,270.00
2018-08-07T07:35:10.495Z,995.63
2018-08-07T07:36:10.504Z,646.88
2018-08-07T07:37:10.512Z,675.00
2018-08-07T07:38:10.522Z,354.38
2018-08-07T07:39:10.530Z,331.88
2018-08-07T07:40:10.537Z,270.00
2018-08-07T07:41:10.546Z,258.75
2018-08-07T07:42:10.554Z,270.00
2018-08-07T07:43:10.564Z,286.88
2018-08-07T07:44:10.572Z,309.38
2018-08-07T07:45:10.579Z,281.25
2018-08-07T07:46:10.590Z,309.38
2018-08-07T07:47:10.683Z,303.75
2018-08-07T07:48:10.602Z,337.50
2018-08-07T07:49:10.611Z,326.25
2018-08-07T07:50:10.617Z,320.63
2018-08-07T07:51:10.624Z,309.38
2018-08-07T07:52:10.635Z,365.63
2018-08-07T07:53:10.642Z,371.25
2018-08-07T07:54:10.647Z,298.13
2018-08-07T07:55:11.048Z,253.13
2018-08-07T07:56:10.665Z,275.63
2018-08-07T07:57:10.671Z,331.88
2018-08-07T07:58:10.678Z,421.88
2018-08-07T07:59:10.685Z,613.13
2018-08-07T08:00:10.694Z,725.63
2018-08-07T08:01:10.701Z,860.63
2018-08-07T08:02:10.707Z,866.25
2018-08-07T08:03:10.790Z,618.75
2018-08-07T08:04:10.724Z,1766.25
2018-08-07T08:05:10.746Z,1890.00
2018-08-07T08:06:10.743Z,1918.13
2018-08-07T08:07:10.749Z,1625.63
2018-08-07T08:08:10.759Z,1597.50
2018-08-07T08:09:10.768Z,1164.38
2018-08-07T08:10:10.776Z,945.00
2018-08-07T08:11:10.825Z,545.63
2018-08-07T08:12:10.796Z,556.88
2018-08-07T08:13:10.806Z,1395.00
2018-08-07T08:14:10.816Z,1063.13
2018-08-07T08:15:10.827Z,1738.13
2018-08-07T08:16:10.841Z,1299.38
2018-08-07T08:17:10.846Z,1743.75
2018-08-07T08:18:10.859Z,2008.13
2018-08-07T08:19:10.870Z,2081.25
2018-08-07T08:20:10.881Z,1957.50
2018-08-07T08:21:10.893Z,1141.88
2018-08-07T08:22:10.907Z,860.63
2018-08-07T08:23:10.916Z,1006.88
2018-08-07T08:24:10.932Z,793.13
2018-08-07T08:25:10.941Z,630.00
2018-08-07T08:26:10.952Z,843.75
2018-08-07T08:27:10.965Z,585.00
2018-08-07T08:28:10.979Z,753.75
2018-08-07T08:29:11.003Z,815.63
2018-08-07T08:30:11.086Z,545.63
2018-08-07T08:31:11.017Z,354.38
2018-08-07T08:32:11.025Z,354.38
2018-08-07T08:33:11.038Z,331.88
2018-08-07T08:34:11.049Z,500.63
2018-08-07T08:35:11.096Z,646.88
2018-08-07T08:36:11.149Z,1125.00
2018-08-07T08:37:11.087Z,1608.75
2018-08-07T08:38:11.098Z,2002.50
2018-08-07T08:39:11.111Z,1704.38
2018-08-07T08:40:11.124Z,1248.75
2018-08-07T08:41:11.136Z,1428.75
2018-08-07T08:42:11.148Z,1822.50
2018-08-07T08:43:11.163Z,2013.75
2018-08-07T08:44:11.393Z,2075.63
2018-08-07T08:45:11.192Z,1929.38
2018-08-07T08:46:11.205Z,2064.38
2018-08-07T08:47:11.220Z,2126.25
2018-08-07T08:48:11.273Z,2126.25
2018-08-07T08:49:11.251Z,2036.25
2018-08-07T08:50:11.265Z,2115.00
2018-08-07T08:51:11.280Z,2272.50
2018-08-07T08:52:11.332Z,2126.25
2018-08-07T08:53:11.310Z,2086.88
2018-08-07T08:54:11.379Z,1980.00
2018-08-07T08:55:11.341Z,2058.75
2018-08-07T08:56:11.357Z,2188.13
2018-08-07T08:57:11.374Z,2019.38
2018-08-07T08:58:11.389Z,1980.00
2018-08-07T08:59:11.405Z,2047.50
2018-08-07T09:00:11.422Z,1991.25
2018-08-07T09:01:11.436Z,1884.38
2018-08-07T09:02:11.452Z,1541.25
2018-08-07T09:03:11.469Z,843.75
2018-08-07T09:04:11.485Z,506.25
2018-08-07T09:05:11.500Z,939.38
2018-08-07T09:06:11.517Z,1693.13
2018-08-07T09:07:11.532Z,1040.63
2018-08-07T09:08:11.549Z,849.38
2018-08-07T09:09:11.566Z,1456.88
2018-08-07T09:10:11.602Z,1659.38
2018-08-07T09:11:11.596Z,1749.38
2018-08-07T09:12:11.664Z,1839.38
2018-08-07T09:13:11.629Z,1760.63
2018-08-07T09:14:11.645Z,1839.38
2018-08-07T09:15:11.660Z,1800.00
2018-08-07T09:16:11.679Z,1788.75
2018-08-07T09:17:11.695Z,1884.38
2018-08-07T09:18:12.109Z,1816.88
2018-08-07T09:19:11.728Z,1715.63
2018-08-07T09:20:11.745Z,1586.25
2018-08-07T09:21:11.762Z,1687.50
2018-08-07T09:22:11.777Z,1726.88
2018-08-07T09:23:11.797Z,1670.63
2018-08-07T09:24:11.812Z,1546.88
2018-08-07T09:25:11.846Z,1636.88
2018-08-07T09:26:11.888Z,1687.50
2018-08-07T09:27:11.863Z,1715.63
2018-08-07T09:28:11.878Z,1698.75
2018-08-07T09:29:11.895Z,1676.25
2018-08-07T09:30:11.912Z,1608.75
2018-08-07T09:31:11.973Z,1665.00
2018-08-07T09:32:11.945Z,1620.00
2018-08-07T09:33:11.967Z,1642.50
2018-08-07T09:34:11.977Z,1507.50
2018-08-07T09:35:11.996Z,1456.88
2018-08-07T09:36:12.012Z,1563.75
2018-08-07T09:37:12.034Z,1333.13
2018-08-07T09:38:12.047Z,1411.88
2018-08-07T09:39:12.065Z,821.25
2018-08-07T09:40:12.095Z,618.75
2018-08-07T09:41:12.097Z,1029.38
2018-08-07T09:42:12.113Z,697.50
2018-08-07T09:43:12.133Z,928.13
2018-08-07T09:44:12.146Z,1389.38
2018-08-07T09:45:12.166Z,1440.00
2018-08-07T09:46:12.179Z,1355.63
2018-08-07T09:47:12.194Z,1327.50
2018-08-07T09:48:12.212Z,1231.88
2018-08-07T09:49:12.227Z,759.38
2018-08-07T09:50:12.242Z,1378.13
2018-08-07T09:51:12.262Z,1006.88
2018-08-07T09:52:12.278Z,675.00
2018-08-07T09:53:12.291Z,978.75
2018-08-07T09:54:12.307Z,1417.50
2018-08-07T09:55:12.320Z,1366.88
2018-08-07T09:56:12.342Z,1226.25
2018-08-07T09:57:12.359Z,995.63
2018-08-07T09:58:12.371Z,866.25
2018-08-07T09:59:12.384Z,601.88
2018-08-07T10:00:12.608Z,483.75
2018-08-07T10:01:12.416Z,551.25
2018-08-07T10:02:12.432Z,765.00
2018-08-07T10:03:12.450Z,472.50
2018-08-07T10:04:12.464Z,511.88
2018-08-07T10:05:12.505Z,601.88
2018-08-07T10:06:12.492Z,618.75
2018-08-07T10:07:12.511Z,556.88
2018-08-07T10:08:12.523Z,528.75
2018-08-07T10:09:12.564Z,624.38
2018-08-07T10:10:12.856Z,556.88
2018-08-07T10:11:12.648Z,461.25
2018-08-07T10:12:12.619Z,455.63
2018-08-07T10:13:12.595Z,511.88
2018-08-07T10:14:12.607Z,579.38
2018-08-07T10:15:12.623Z,517.50
2018-08-07T10:16:12.655Z,472.50
2018-08-07T10:17:12.648Z,393.75
2018-08-07T10:18:12.902Z,315.00
2018-08-07T10:19:12.822Z,303.75
2018-08-07T10:20:13.169Z,286.88
2018-08-07T10:21:12.897Z,275.63
2018-08-07T10:22:12.714Z,275.63
2018-08-07T10:23:12.778Z,270.00
2018-08-07T10:24:12.740Z,258.75
2018-08-07T10:25:12.753Z,264.38
2018-08-07T10:26:12.764Z,303.75
2018-08-07T10:27:12.776Z,298.13
2018-08-07T10:28:12.788Z,275.63
2018-08-07T10:29:12.862Z,281.25
2018-08-07T10:30:12.812Z,281.25
2018-08-07T10:31:12.824Z,281.25
2018-08-07T10:32:12.844Z,253.13
2018-08-07T10:33:12.852Z,241.88
2018-08-07T10:34:12.857Z,241.88
2018-08-07T10:35:12.871Z,241.88
2018-08-07T10:36:12.879Z,241.88
2018-08-07T10:37:13.184Z,241.88
2018-08-07T10:38:12.900Z,236.25
2018-08-07T10:39:13.207Z,236.25
2018-08-07T10:40:13.082Z,230.63
2018-08-07T10:41:13.104Z,225.00
2018-08-07T10:42:12.942Z,219.38
2018-08-07T10:43:13.040Z,213.75
2018-08-07T10:44:12.967Z,202.50
2018-08-07T10:45:12.971Z,196.88
2018-08-07T10:46:12.983Z,191.25
2018-08-07T10:47:12.991Z,191.25
2018-08-07T10:48:13.002Z,191.25
2018-08-07T10:49:13.012Z,191.25
2018-08-07T10:50:13.024Z,191.25
2018-08-07T10:51:13.030Z,196.88
2018-08-07T10:52:13.055Z,202.50
2018-08-07T10:53:13.053Z,208.13
2018-08-07T10:54:13.059Z,219.38
2018-08-07T10:55:13.070Z,230.63
2018-08-07T10:56:13.077Z,236.25
2018-08-07T10:57:13.089Z,253.13
2018-08-07T10:58:13.131Z,275.63
2018-08-07T10:59:13.128Z,275.63
2018-08-07T11:00:13.115Z,281.25
2018-08-07T11:01:13.123Z,292.50
2018-08-07T11:02:13.133Z,303.75
2018-08-07T11:03:13.142Z,371.25
2018-08-07T11:04:13.150Z,461.25
2018-08-07T11:05:13.160Z,427.50
2018-08-07T11:06:13.169Z,534.38
2018-08-07T11:07:13.180Z,680.63
2018-08-07T11:08:13.190Z,607.50
2018-08-07T11:09:13.199Z,646.88
2018-08-07T11:10:13.333Z,680.63
2018-08-07T11:11:13.560Z,720.00
2018-08-07T11:12:13.229Z,607.50
2018-08-07T11:13:13.240Z,804.38
2018-08-07T11:14:13.250Z,826.88
2018-08-07T11:15:13.262Z,675.00
2018-08-07T11:16:13.276Z,810.00
2018-08-07T11:17:13.285Z,551.25
2018-08-07T11:18:13.296Z,669.38
2018-08-07T11:19:13.312Z,624.38
2018-08-07T11:20:13.321Z,483.75
2018-08-07T11:21:13.391Z,455.63
2018-08-07T11:22:13.343Z,382.50
2018-08-07T11:23:13.356Z,326.25
2018-08-07T11:24:13.367Z,298.13
2018-08-07T11:25:13.380Z,292.50
2018-08-07T11:26:13.391Z,309.38
2018-08-07T11:27:13.425Z,382.50
2018-08-07T11:28:13.419Z,410.63
2018-08-07T11:29:13.426Z,461.25
2018-08-07T11:30:13.438Z,438.75
2018-08-07T11:31:13.474Z,213.75
2018-08-07T11:32:13.499Z,191.25
2018-08-07T11:33:13.476Z,174.38
2018-08-07T11:34:13.483Z,163.13
2018-08-07T11:35:13.494Z,163.13
2018-08-07T11:36:13.505Z,163.13
2018-08-07T11:37:13.563Z,163.13
2018-08-07T11:38:13.525Z,157.50
2018-08-07T11:39:13.535Z,157.50
2018-08-07T11:40:13.547Z,157.50
2018-08-07T11:41:13.597Z,163.13
2018-08-07T11:42:13.599Z,163.13
2018-08-07T11:43:13.577Z,163.13
2018-08-07T11:44:13.587Z,163.13
2018-08-07T11:45:13.597Z,157.50
2018-08-07T11:46:13.606Z,157.50
2018-08-07T11:47:13.616Z,151.88
2018-08-07T11:48:13.654Z,146.25
2018-08-07T11:49:13.637Z,146.25
2018-08-07T11:50:13.644Z,146.25
2018-08-07T11:51:13.655Z,146.25
2018-08-07T11:52:13.665Z,151.88
2018-08-07T11:53:13.678Z,151.88
2018-08-07T11:54:13.686Z,157.50
2018-08-07T11:55:13.693Z,157.50
2018-08-07T11:56:13.743Z,157.50
2018-08-07T11:57:13.711Z,163.13
2018-08-07T11:58:13.718Z,168.75
2018-08-07T11:59:13.729Z,180.00
2018-08-07T12:00:13.739Z,196.88
2018-08-07T12:01:13.746Z,196.88
2018-08-07T12:02:14.646Z,208.13
2018-08-07T12:03:13.767Z,219.38
2018-08-07T12:04:13.773Z,230.63
2018-08-07T12:05:13.963Z,241.88
2018-08-07T12:06:13.793Z,264.38
2018-08-07T12:07:13.800Z,270.00
2018-08-07T12:08:13.808Z,281.25
2018-08-07T12:09:14.021Z,337.50
2018-08-07T12:10:14.199Z,331.88
2018-08-07T12:11:13.837Z,652.50
2018-08-07T12:12:14.015Z,393.75
2018-08-07T12:13:14.048Z,270.00
2018-08-07T12:14:13.868Z,253.13
2018-08-07T12:15:13.879Z,253.13
2018-08-07T12:16:13.940Z,247.50
2018-08-07T12:17:13.894Z,247.50
2018-08-07T12:18:14.335Z,247.50
2018-08-07T12:19:14.132Z,241.88
2018-08-07T12:20:14.333Z,247.50
2018-08-07T12:21:13.933Z,258.75
2018-08-07T12:22:13.942Z,326.25
2018-08-07T12:23:13.952Z,416.25
2018-08-07T12:24:13.962Z,286.88
2018-08-07T12:25:13.971Z,281.25
2018-08-07T12:26:13.980Z,281.25
2018-08-07T12:27:13.989Z,315.00
2018-08-07T12:28:14.000Z,495.00
2018-08-07T12:29:14.010Z,309.38
2018-08-07T12:30:14.105Z,258.75
2018-08-07T12:31:14.047Z,241.88
2018-08-07T12:32:14.040Z,236.25
2018-08-07T12:33:14.050Z,241.88
2018-08-07T12:34:14.125Z,281.25
2018-08-07T12:35:14.112Z,348.75
2018-08-07T12:36:14.081Z,365.63
2018-08-07T12:37:14.088Z,421.88
2018-08-07T12:38:14.097Z,545.63
2018-08-07T12:39:14.110Z,427.50
2018-08-07T12:40:14.120Z,331.88
2018-08-07T12:41:14.160Z,258.75
2018-08-07T12:42:14.161Z,230.63
2018-08-07T12:43:14.147Z,241.88
2018-08-07T12:44:14.157Z,253.13
2018-08-07T12:45:14.196Z,230.63
2018-08-07T12:46:14.176Z,202.50